Mackenzie, Canada
Current Conditions -  °F | °C
As of 12:00 PM on Saturday 25 Oct 2014 (Local Time) from CYZY Reporting Station
Overcast Overcast  
Wind Chill: 30°   Ceiling: 7000
Heat Index: 37°   Visibility: 9mi
Dew Point: 34°   Wind: 12mph
Humidity: 87%   Direction: 340°NNW
Pressure: 29.68"   Gusts: 18mph
Location:  55.33°N, 123.09°W
Report Text: CYZY 251900Z AUTO 34010G16KT 290V010 9SM OVC070 03/01 A2968 RMK SLP079
Loading
Personal Weather Stations






























Interactive Weather Map New forecast layout! Learn more

10-Day Weather Forecast

Advertisements
Track Severe Weather on mobile